createdAt,value
2022-09-23T00:04:07.247Z,56.30
2022-09-23T00:09:04.131Z,56.47
2022-09-23T00:14:00.931Z,55.69
2022-09-23T00:19:01.051Z,55.05
2022-09-23T00:23:59.696Z,54.50
2022-09-23T00:28:56.411Z,53.88
2022-09-23T00:33:54.118Z,53.22
2022-09-23T00:38:52.181Z,56.25
2022-09-23T00:43:51.645Z,58.29
2022-09-23T00:48:51.683Z,58.28
2022-09-23T00:53:50.296Z,57.79
2022-09-23T00:58:50.457Z,57.95
2022-09-23T01:03:48.946Z,57.55
2022-09-23T01:08:46.977Z,58.78
2022-09-23T01:13:50.554Z,60.26
2022-09-23T01:18:57.480Z,60.84
2022-09-23T01:24:21.028Z,61.20
2022-09-23T01:29:27.961Z,60.49
2022-09-23T01:34:30.380Z,59.99
2022-09-23T01:39:34.557Z,59.33
2022-09-23T01:44:34.328Z,58.50
2022-09-23T01:49:35.428Z,58.24
2022-09-23T01:54:42.204Z,57.84
2022-09-23T01:59:40.119Z,57.56
2022-09-23T02:04:40.348Z,57.58
2022-09-23T02:09:39.256Z,57.91
2022-09-23T02:14:38.565Z,57.34
2022-09-23T02:19:40.694Z,56.80
2022-09-23T02:24:46.117Z,56.68
2022-09-23T02:29:48.914Z,56.46
2022-09-23T02:34:49.974Z,56.40
2022-09-23T02:39:51.475Z,56.85
2022-09-23T02:44:50.617Z,57.44
2022-09-23T02:49:49.428Z,57.52
2022-09-23T02:54:46.480Z,57.71
2022-09-23T02:59:45.528Z,57.99
2022-09-23T03:04:47.168Z,57.35
2022-09-23T03:09:53.032Z,57.60
2022-09-23T03:14:53.688Z,57.14
2022-09-23T03:19:55.473Z,56.67
2022-09-23T03:24:54.240Z,56.95
2022-09-23T03:29:54.449Z,58.36
2022-09-23T03:34:55.151Z,58.47
2022-09-23T03:40:01.692Z,58.17
2022-09-23T03:45:02.451Z,58.49
2022-09-23T03:50:01.541Z,58.33
2022-09-23T03:55:00.952Z,58.03
2022-09-23T03:59:59.398Z,58.86
2022-09-23T04:04:57.888Z,58.45
2022-09-23T04:10:04.360Z,58.01
2022-09-23T04:15:02.133Z,57.25
2022-09-23T04:20:01.768Z,58.11
2022-09-23T04:25:03.329Z,58.68
2022-09-23T04:30:01.417Z,56.88
2022-09-23T04:34:58.830Z,61.18
2022-09-23T04:39:57.362Z,61.74
2022-09-23T04:44:54.317Z,63.89
2022-09-23T04:49:59.047Z,62.85
2022-09-23T04:54:57.364Z,62.14
2022-09-23T04:59:57.933Z,59.85
2022-09-23T05:04:57.803Z,57.84
2022-09-23T05:09:55.793Z,58.11
2022-09-23T05:14:53.418Z,59.85
2022-09-23T05:19:50.270Z,58.95
2022-09-23T05:24:49.896Z,58.36
2022-09-23T05:29:46.898Z,57.84
2022-09-23T05:34:44.439Z,58.79
2022-09-23T05:39:42.388Z,58.53
2022-09-23T05:44:51.138Z,56.86
2022-09-23T05:49:59.942Z,55.86
2022-09-23T05:55:08.156Z,54.86
2022-09-23T06:00:10.018Z,55.21
2022-09-23T06:05:11.749Z,55.19
2022-09-23T06:10:18.562Z,55.29
2022-09-23T06:15:16.449Z,55.70
2022-09-23T06:20:23.141Z,57.86
2022-09-23T06:25:21.750Z,56.27
2022-09-23T06:30:18.800Z,56.94
2022-09-23T06:35:26.054Z,56.59
2022-09-23T06:40:25.246Z,56.50
2022-09-23T06:45:23.076Z,55.95
2022-09-23T06:50:20.379Z,55.87
2022-09-23T06:55:18.511Z,55.36
2022-09-23T07:00:16.180Z,61.62
2022-09-23T07:05:13.205Z,63.42
2022-09-23T07:10:11.637Z,65.39
2022-09-23T07:15:11.413Z,65.80
2022-09-23T07:20:10.870Z,65.75
2022-09-23T07:25:07.883Z,69.39
2022-09-23T07:30:05.848Z,70.49
2022-09-23T07:35:03.775Z,71.20
2022-09-23T07:40:04.033Z,69.62
2022-09-23T07:45:06.437Z,68.58
2022-09-23T07:50:06.149Z,69.24
2022-09-23T07:55:20.870Z,70.71
2022-09-23T08:00:20.275Z,69.28
2022-09-23T08:05:19.015Z,68.57
2022-09-23T08:10:18.647Z,67.49
2022-09-23T08:15:17.724Z,66.27
2022-09-23T08:20:34.732Z,64.38
2022-09-23T08:25:34.395Z,65.86
2022-09-23T08:30:37.558Z,67.49
2022-09-23T08:35:34.760Z,67.24
2022-09-23T08:40:34.185Z,65.00
2022-09-23T08:45:34.652Z,64.79
2022-09-23T08:50:44.836Z,65.33
2022-09-23T08:55:57.369Z,67.26
2022-09-23T09:01:07.429Z,67.37
2022-09-23T09:06:06.874Z,67.28
2022-09-23T09:11:06.362Z,66.52
2022-09-23T09:16:16.420Z,66.23
2022-09-23T09:21:13.737Z,65.75
2022-09-23T09:26:16.106Z,65.99
2022-09-23T09:31:29.201Z,66.04
2022-09-23T09:36:31.345Z,65.50
2022-09-23T09:41:31.317Z,66.86
2022-09-23T09:46:45.608Z,66.18
2022-09-23T09:51:46.016Z,67.02
2022-09-23T09:56:44.011Z,65.70
2022-09-23T10:01:44.066Z,66.49
2022-09-23T10:06:43.603Z,66.59
2022-09-23T10:11:49.425Z,64.41
2022-09-23T10:16:48.284Z,63.73
2022-09-23T10:21:53.526Z,62.49
2022-09-23T10:27:06.936Z,61.28
2022-09-23T10:32:25.823Z,60.25
2022-09-23T10:37:28.572Z,57.54
2022-09-23T10:43:02.347Z,57.16
2022-09-23T10:48:03.107Z,55.09
2022-09-23T10:53:06.412Z,53.73
2022-09-23T10:58:22.635Z,52.48
2022-09-23T11:03:44.381Z,53.30
2022-09-23T11:09:06.065Z,51.62
2022-09-23T11:14:22.893Z,50.96
2022-09-23T11:19:36.262Z,50.78
2022-09-23T11:24:51.595Z,51.43
2022-09-23T11:30:10.948Z,49.79
2022-09-23T11:35:14.902Z,49.32
2022-09-23T11:40:18.890Z,48.74
2022-09-23T11:45:18.771Z,49.19
2022-09-23T11:50:26.279Z,48.04
2022-09-23T11:55:25.797Z,48.49
2022-09-23T12:00:27.318Z,48.09
2022-09-23T12:05:26.253Z,48.07
2022-09-23T12:10:30.172Z,47.89
2022-09-23T12:15:41.155Z,48.56
2022-09-23T12:20:47.517Z,48.05
2022-09-23T12:25:51.048Z,49.20
2022-09-23T12:30:52.650Z,48.22
2022-09-23T12:35:54.687Z,50.20
2022-09-23T12:40:52.610Z,47.49
2022-09-23T12:45:53.758Z,48.93
2022-09-23T12:50:54.400Z,47.93
2022-09-23T12:56:17.817Z,48.35
2022-09-23T13:01:39.495Z,47.04
2022-09-23T13:06:39.668Z,47.31
2022-09-23T13:11:39.997Z,46.26
2022-09-23T13:16:41.808Z,45.34
2022-09-23T13:21:57.545Z,45.65
2022-09-23T13:26:58.621Z,42.73
2022-09-23T13:32:02.644Z,44.13
2022-09-23T13:37:12.866Z,43.08
2022-09-23T13:42:15.947Z,40.19
2022-09-23T13:47:14.811Z,41.91
2022-09-23T13:52:24.399Z,41.17
2022-09-23T13:57:27.765Z,41.90
2022-09-23T14:02:28.975Z,41.92
2022-09-23T14:07:27.990Z,41.33
2022-09-23T14:12:29.260Z,41.25
2022-09-23T14:17:28.259Z,41.54
2022-09-23T14:22:26.155Z,42.31
2022-09-23T14:27:28.251Z,42.03
2022-09-23T14:32:39.179Z,41.94
2022-09-23T14:37:58.105Z,42.65
2022-09-23T14:43:00.278Z,42.09
2022-09-23T14:47:59.796Z,42.21
2022-09-23T14:52:57.397Z,42.74
2022-09-23T14:58:01.302Z,43.21
2022-09-23T15:03:02.018Z,44.57
2022-09-23T15:08:01.686Z,49.82
2022-09-23T15:13:06.488Z,50.74
2022-09-23T15:18:13.917Z,48.27
2022-09-23T15:23:31.479Z,48.66
2022-09-23T15:28:31.328Z,50.65
2022-09-23T15:33:29.383Z,50.23
2022-09-23T15:38:26.725Z,47.23
2022-09-23T15:43:24.508Z,46.00
2022-09-23T15:48:25.873Z,44.79
2022-09-23T15:53:26.499Z,45.97
2022-09-23T15:58:25.291Z,46.69
2022-09-23T16:03:28.601Z,48.28
2022-09-23T16:08:27.786Z,48.49
2022-09-23T16:13:24.576Z,48.71
2022-09-23T16:18:21.335Z,48.94
2022-09-23T16:23:33.454Z,48.98
2022-09-23T16:28:33.462Z,49.98
2022-09-23T16:33:33.846Z,49.74
2022-09-23T16:38:32.247Z,49.56
2022-09-23T16:43:38.866Z,49.05
2022-09-23T16:48:48.313Z,48.78
2022-09-23T16:53:51.195Z,49.93
2022-09-23T16:58:51.614Z,50.29
2022-09-23T17:03:49.317Z,50.19
2022-09-23T17:08:47.632Z,49.74
2022-09-23T17:13:44.667Z,49.78
2022-09-23T17:18:44.320Z,51.04
2022-09-23T17:23:44.266Z,51.29
2022-09-23T17:28:41.083Z,51.94
2022-09-23T17:33:41.213Z,51.97
2022-09-23T17:38:40.876Z,52.29
2022-09-23T17:43:38.564Z,52.21
2022-09-23T17:48:39.144Z,53.27
2022-09-23T17:53:39.542Z,53.03
2022-09-23T17:58:39.452Z,52.62
2022-09-23T18:03:37.438Z,53.07
2022-09-23T18:08:35.148Z,56.14
2022-09-23T18:13:31.932Z,54.06
2022-09-23T18:18:31.332Z,54.84
2022-09-23T18:23:29.200Z,52.47
2022-09-23T18:28:31.442Z,51.94
2022-09-23T18:33:31.336Z,51.40
2022-09-23T18:38:31.162Z,50.95
2022-09-23T18:43:35.881Z,50.63
2022-09-23T18:48:54.655Z,52.66
2022-09-23T18:53:56.988Z,52.58
2022-09-23T18:59:22.021Z,51.36
2022-09-23T19:04:19.882Z,52.08
2022-09-23T19:09:19.586Z,52.28
2022-09-23T19:14:16.444Z,50.82
2022-09-23T19:19:14.218Z,52.76
2022-09-23T19:24:15.838Z,54.01
2022-09-23T19:29:14.956Z,53.98
2022-09-23T19:34:12.590Z,52.99
2022-09-23T19:39:17.413Z,53.90
2022-09-23T19:44:28.089Z,50.51
2022-09-23T19:49:26.011Z,51.53
2022-09-23T19:54:40.528Z,51.83
2022-09-23T19:59:40.202Z,52.28
2022-09-23T20:04:37.001Z,52.34
2022-09-23T20:09:48.515Z,52.54
2022-09-23T20:14:50.911Z,50.51
2022-09-23T20:19:47.770Z,51.11
2022-09-23T20:24:44.551Z,52.23
2022-09-23T20:29:43.874Z,54.03
2022-09-23T20:34:46.243Z,56.21
2022-09-23T20:39:46.064Z,57.06
2022-09-23T20:44:44.710Z,57.66
2022-09-23T20:49:43.292Z,59.81
2022-09-23T20:54:41.564Z,63.11
2022-09-23T20:59:41.230Z,63.77
2022-09-23T21:04:38.160Z,64.53
2022-09-23T21:09:40.019Z,64.68
2022-09-23T21:14:40.770Z,64.94
2022-09-23T21:19:37.644Z,65.70
2022-09-23T21:25:03.857Z,65.78
2022-09-23T21:29:52.759Z,66.39
2022-09-23T21:34:52.097Z,66.19
2022-09-23T21:40:09.658Z,66.32
2022-09-23T21:45:09.478Z,66.70
2022-09-23T21:50:06.950Z,66.32
2022-09-23T21:55:07.140Z,65.58
2022-09-23T22:00:06.831Z,65.25
2022-09-23T22:05:05.710Z,67.03
2022-09-23T22:10:08.248Z,69.20
2022-09-23T22:15:07.178Z,69.08
2022-09-23T22:20:05.825Z,68.50
2022-09-23T22:25:02.530Z,67.67
2022-09-23T22:30:17.591Z,67.09
2022-09-23T22:35:17.985Z,66.44
2022-09-23T22:40:15.156Z,65.44
2022-09-23T22:45:16.331Z,65.23
2022-09-23T22:50:15.387Z,64.87
2022-09-23T22:55:15.883Z,64.61
2022-09-23T23:00:13.340Z,63.40
2022-09-23T23:05:14.003Z,63.86
2022-09-23T23:10:13.644Z,63.31
2022-09-23T23:15:18.771Z,64.43
2022-09-23T23:20:15.992Z,64.37
2022-09-23T23:25:18.742Z,63.81
2022-09-23T23:30:25.507Z,63.72
2022-09-23T23:35:28.219Z,63.44
2022-09-23T23:40:32.058Z,63.08
2022-09-23T23:45:29.672Z,61.55
2022-09-23T23:50:29.505Z,61.90
2022-09-23T23:55:32.246Z,61.99
